Erin, Wisconsin
Current Conditions -  °F | °C
As of 6:55 AM on Friday 24 Oct 2014 (Local Time) from KRNH Reporting Station
Haze Haze  
Wind Chill: 43°   Ceiling: Unl
Heat Index: 45°   Visibility: 4mi
Dew Point: 45°   Wind: 5mph
Humidity: 100%   Direction: 140°SE
Pressure: 29.93"   Gusts: NA
Location:  45.1804°N, 92.551°W
Report Text: KRNH 241155Z AUTO 14004KT 4SM BR CLR 07/07 A2993 RMK AO2 T00730073 10094 20073
Loading
Personal Weather Stations






























Interactive Weather Map
Tropical Storm Tracking
New forecast layout! Learn more

10-Day Weather Forecast

Advertisements
Track Severe Weather on mobile